sensor_id;sensor_type;location;lat;lon;timestamp;pressure;altitude;pressure_sealevel;temperature
74915;BMP280;63475;45.140;-75.616;2022-09-17T15:46:31;101454.50;;;16.82
74915;BMP280;63475;45.140;-75.616;2022-09-17T15:47:54;101462.69;;;16.91
74915;BMP280;63475;45.140;-75.616;2022-09-17T15:49:33;101466.50;;;16.90
74915;BMP280;63475;45.140;-75.616;2022-09-17T15:50:49;101459.00;;;16.85
74915;BMP280;63475;45.140;-75.616;2022-09-17T15:51:51;101460.00;;;16.91
74915;BMP280;63475;45.140;-75.616;2022-09-17T15:54:24;101457.56;;;17.16
74915;BMP280;63475;45.140;-75.616;2022-09-17T15:55:37;101449.31;;;17.27
74915;BMP280;63475;45.140;-75.616;2022-09-17T15:56:41;101444.91;;;17.36
74915;BMP280;63475;45.140;-75.616;2022-09-17T15:57:42;101437.94;;;17.39
74915;BMP280;63475;45.140;-75.616;2022-09-17T15:59:44;101443.13;;;17.46
74915;BMP280;63475;45.140;-75.616;2022-09-17T16:00:45;101448.72;;;17.51
74915;BMP280;63475;45.140;-75.616;2022-09-17T16:02:48;101430.81;;;17.65
74915;BMP280;63475;45.140;-75.616;2022-09-17T16:07:29;101421.06;;;17.74
74915;BMP280;63475;45.140;-75.616;2022-09-17T16:08:33;101425.88;;;17.79
74915;BMP280;63475;45.140;-75.616;2022-09-17T16:09:42;101424.81;;;17.77
74915;BMP280;63475;45.140;-75.616;2022-09-17T16:10:46;101422.16;;;17.77
74915;BMP280;63475;45.140;-75.616;2022-09-17T16:11:47;101417.25;;;17.88
74915;BMP280;63475;45.140;-75.616;2022-09-17T16:12:51;101410.22;;;17.94
74915;BMP280;63475;45.140;-75.616;2022-09-17T16:13:53;101419.47;;;18.06
74915;BMP280;63475;45.140;-75.616;2022-09-17T16:14:56;101419.91;;;18.04
74915;BMP280;63475;45.140;-75.616;2022-09-17T16:15:58;101415.31;;;18.05
74915;BMP280;63475;45.140;-75.616;2022-09-17T16:17:08;101416.81;;;18.06
74915;BMP280;63475;45.140;-75.616;2022-09-17T16:18:11;101407.91;;;18.09
74915;BMP280;63475;45.140;-75.616;2022-09-17T16:19:22;101398.81;;;18.06
74915;BMP280;63475;45.140;-75.616;2022-09-17T16:20:24;101398.28;;;18.11
74915;BMP280;63475;45.140;-75.616;2022-09-17T16:21:25;101387.78;;;18.04
74915;BMP280;63475;45.140;-75.616;2022-09-17T16:22:26;101396.59;;;18.17
74915;BMP280;63475;45.140;-75.616;2022-09-17T16:23:28;101398.09;;;18.18
74915;BMP280;63475;45.140;-75.616;2022-09-17T16:24:29;101395.84;;;18.17
74915;BMP280;63475;45.140;-75.616;2022-09-17T16:25:30;101388.66;;;18.14
74915;BMP280;63475;45.140;-75.616;2022-09-17T16:26:32;101391.88;;;18.21
74915;BMP280;63475;45.140;-75.616;2022-09-17T16:27:46;101397.56;;;18.23
74915;BMP280;63475;45.140;-75.616;2022-09-17T16:28:51;101387.09;;;18.29
74915;BMP280;63475;45.140;-75.616;2022-09-17T16:30:01;101392.63;;;18.34
74915;BMP280;63475;45.140;-75.616;2022-09-17T16:31:04;101384.22;;;18.49
74915;BMP280;63475;45.140;-75.616;2022-09-17T16:32:08;101375.88;;;18.59
74915;BMP280;63475;45.140;-75.616;2022-09-17T16:33:11;101383.69;;;18.79
74915;BMP280;63475;45.140;-75.616;2022-09-17T16:34:12;101390.66;;;18.89
74915;BMP280;63475;45.140;-75.616;2022-09-17T16:35:15;101390.53;;;18.93
74915;BMP280;63475;45.140;-75.616;2022-09-17T16:36:17;101380.66;;;19.02
74915;BMP280;63475;45.140;-75.616;2022-09-17T16:37:18;101371.56;;;19.12
74915;BMP280;63475;45.140;-75.616;2022-09-17T16:38:19;101364.44;;;19.18
74915;BMP280;63475;45.140;-75.616;2022-09-17T16:39:20;101375.38;;;19.24
74915;BMP280;63475;45.140;-75.616;2022-09-17T16:40:23;101374.22;;;19.12
74915;BMP280;63475;45.140;-75.616;2022-09-17T16:41:24;101373.16;;;19.10
74915;BMP280;63475;45.140;-75.616;2022-09-17T16:42:29;101368.88;;;19.12
74915;BMP280;63475;45.140;-75.616;2022-09-17T16:43:30;101378.53;;;19.32
74915;BMP280;63475;45.140;-75.616;2022-09-17T16:44:33;101375.22;;;19.28
74915;BMP280;63475;45.140;-75.616;2022-09-17T16:45:34;101371.19;;;19.23
74915;BMP280;63475;45.140;-75.616;2022-09-17T16:46:35;101369.75;;;19.31
74915;BMP280;63475;45.140;-75.616;2022-09-17T16:47:37;101377.91;;;19.40
74915;BMP280;63475;45.140;-75.616;2022-09-17T16:48:38;101374.72;;;19.54
74915;BMP280;63475;45.140;-75.616;2022-09-17T16:49:40;101370.66;;;19.72
74915;BMP280;63475;45.140;-75.616;2022-09-17T16:50:41;101365.09;;;19.66
74915;BMP280;63475;45.140;-75.616;2022-09-17T16:51:42;101365.38;;;19.81
74915;BMP280;63475;45.140;-75.616;2022-09-17T16:52:44;101361.16;;;20.01
74915;BMP280;63475;45.140;-75.616;2022-09-17T16:53:45;101351.25;;;20.11
74915;BMP280;63475;45.140;-75.616;2022-09-17T16:54:46;101356.66;;;20.20
74915;BMP280;63475;45.140;-75.616;2022-09-17T16:55:47;101350.69;;;20.25
74915;BMP280;63475;45.140;-75.616;2022-09-17T16:56:48;101351.44;;;20.26
74915;BMP280;63475;45.140;-75.616;2022-09-17T16:57:49;101358.00;;;20.25
74915;BMP280;63475;45.140;-75.616;2022-09-17T16:58:54;101362.47;;;20.28
74915;BMP280;63475;45.140;-75.616;2022-09-17T16:59:55;101355.38;;;20.43
74915;BMP280;63475;45.140;-75.616;2022-09-17T17:00:56;101356.31;;;20.58
74915;BMP280;63475;45.140;-75.616;2022-09-17T17:01:57;101356.19;;;20.71
74915;BMP280;63475;45.140;-75.616;2022-09-17T17:02:58;101350.72;;;20.83
74915;BMP280;63475;45.140;-75.616;2022-09-17T17:03:59;101367.44;;;20.97
74915;BMP280;63475;45.140;-75.616;2022-09-17T17:05:00;101356.41;;;21.22
74915;BMP280;63475;45.140;-75.616;2022-09-17T17:06:01;101361.13;;;21.63
74915;BMP280;63475;45.140;-75.616;2022-09-17T17:07:03;101355.56;;;21.76
74915;BMP280;63475;45.140;-75.616;2022-09-17T17:08:04;101354.75;;;21.52
74915;BMP280;63475;45.140;-75.616;2022-09-17T17:09:05;101357.22;;;21.73
74915;BMP280;63475;45.140;-75.616;2022-09-17T17:10:07;101351.53;;;22.13
74915;BMP280;63475;45.140;-75.616;2022-09-17T17:11:11;101347.81;;;22.67
74915;BMP280;63475;45.140;-75.616;2022-09-17T17:12:12;101350.78;;;22.22
74915;BMP280;63475;45.140;-75.616;2022-09-17T17:13:13;101335.56;;;21.68
74915;BMP280;63475;45.140;-75.616;2022-09-17T17:14:13;101336.06;;;21.39
74915;BMP280;63475;45.140;-75.616;2022-09-17T17:15:15;101334.59;;;21.11
74915;BMP280;63475;45.140;-75.616;2022-09-17T17:16:15;101333.25;;;21.06
74915;BMP280;63475;45.140;-75.616;2022-09-17T17:17:17;101327.59;;;21.13
74915;BMP280;63475;45.140;-75.616;2022-09-17T17:18:21;101313.06;;;21.11
74915;BMP280;63475;45.140;-75.616;2022-09-17T17:19:23;101321.59;;;21.00
74915;BMP280;63475;45.140;-75.616;2022-09-17T17:20:25;101317.72;;;20.83
74915;BMP280;63475;45.140;-75.616;2022-09-17T17:21:26;101317.84;;;20.70
74915;BMP280;63475;45.140;-75.616;2022-09-17T17:22:27;101319.94;;;20.75
74915;BMP280;63475;45.140;-75.616;2022-09-17T17:23:28;101317.88;;;20.88
74915;BMP280;63475;45.140;-75.616;2022-09-17T17:24:29;101314.72;;;21.08
74915;BMP280;63475;45.140;-75.616;2022-09-17T17:25:30;101292.16;;;21.06
74915;BMP280;63475;45.140;-75.616;2022-09-17T17:26:32;101308.16;;;21.09
74915;BMP280;63475;45.140;-75.616;2022-09-17T17:27:33;101310.53;;;21.07
74915;BMP280;63475;45.140;-75.616;2022-09-17T17:28:35;101301.88;;;20.94
74915;BMP280;63475;45.140;-75.616;2022-09-17T17:29:36;101307.56;;;21.05
74915;BMP280;63475;45.140;-75.616;2022-09-17T17:30:37;101305.94;;;21.17
74915;BMP280;63475;45.140;-75.616;2022-09-17T17:31:38;101300.38;;;21.29
74915;BMP280;63475;45.140;-75.616;2022-09-17T17:32:39;101307.66;;;21.56
74915;BMP280;63475;45.140;-75.616;2022-09-17T17:33:40;101304.28;;;21.28
74915;BMP280;63475;45.140;-75.616;2022-09-17T17:34:40;101297.88;;;21.17
74915;BMP280;63475;45.140;-75.616;2022-09-17T17:35:41;101303.09;;;21.20
74915;BMP280;63475;45.140;-75.616;2022-09-17T17:36:42;101303.09;;;21.11
74915;BMP280;63475;45.140;-75.616;2022-09-17T17:37:44;101290.25;;;20.88
74915;BMP280;63475;45.140;-75.616;2022-09-17T17:38:45;101292.63;;;20.95
74915;BMP280;63475;45.140;-75.616;2022-09-17T17:39:46;101301.00;;;20.79
74915;BMP280;63475;45.140;-75.616;2022-09-17T17:40:47;101296.63;;;20.72
74915;BMP280;63475;45.140;-75.616;2022-09-17T17:41:48;101296.50;;;20.76
74915;BMP280;63475;45.140;-75.616;2022-09-17T17:42:52;101298.75;;;20.77
74915;BMP280;63475;45.140;-75.616;2022-09-17T17:43:54;101293.97;;;20.90
74915;BMP280;63475;45.140;-75.616;2022-09-17T17:44:55;101300.53;;;20.99
74915;BMP280;63475;45.140;-75.616;2022-09-17T17:45:55;101289.66;;;20.84
74915;BMP280;63475;45.140;-75.616;2022-09-17T17:46:59;101291.00;;;21.16
74915;BMP280;63475;45.140;-75.616;2022-09-17T17:48:00;101288.75;;;21.05
74915;BMP280;63475;45.140;-75.616;2022-09-17T17:49:01;101289.22;;;21.13
74915;BMP280;63475;45.140;-75.616;2022-09-17T17:50:03;101288.56;;;21.27
74915;BMP280;63475;45.140;-75.616;2022-09-17T17:51:07;101294.22;;;21.56
74915;BMP280;63475;45.140;-75.616;2022-09-17T17:52:08;101291.34;;;21.60
74915;BMP280;63475;45.140;-75.616;2022-09-17T17:53:09;101285.25;;;21.92
74915;BMP280;63475;45.140;-75.616;2022-09-17T17:54:10;101283.56;;;22.27
74915;BMP280;63475;45.140;-75.616;2022-09-17T17:55:11;101278.91;;;22.52
74915;BMP280;63475;45.140;-75.616;2022-09-17T17:56:12;101285.94;;;22.73
74915;BMP280;63475;45.140;-75.616;2022-09-17T17:57:13;101293.56;;;22.89
74915;BMP280;63475;45.140;-75.616;2022-09-17T17:58:14;101278.69;;;22.17
74915;BMP280;63475;45.140;-75.616;2022-09-17T17:59:14;101287.81;;;21.87
74915;BMP280;63475;45.140;-75.616;2022-09-17T18:00:15;101282.25;;;21.57
74915;BMP280;63475;45.140;-75.616;2022-09-17T18:01:19;101289.91;;;21.31
74915;BMP280;63475;45.140;-75.616;2022-09-17T18:02:20;101290.53;;;21.26
74915;BMP280;63475;45.140;-75.616;2022-09-17T18:03:22;101282.59;;;21.32
74915;BMP280;63475;45.140;-75.616;2022-09-17T18:04:24;101285.72;;;21.49
74915;BMP280;63475;45.140;-75.616;2022-09-17T18:05:25;101285.63;;;21.67
74915;BMP280;63475;45.140;-75.616;2022-09-17T18:06:27;101278.38;;;21.91
74915;BMP280;63475;45.140;-75.616;2022-09-17T18:07:28;101280.84;;;22.04
74915;BMP280;63475;45.140;-75.616;2022-09-17T18:08:29;101273.81;;;22.30
74915;BMP280;63475;45.140;-75.616;2022-09-17T18:09:30;101271.56;;;22.52
74915;BMP280;63475;45.140;-75.616;2022-09-17T18:10:31;101281.16;;;22.53
74915;BMP280;63475;45.140;-75.616;2022-09-17T18:11:32;101271.16;;;22.45
74915;BMP280;63475;45.140;-75.616;2022-09-17T18:12:34;101269.56;;;22.38
74915;BMP280;63475;45.140;-75.616;2022-09-17T18:13:37;101261.44;;;22.47
74915;BMP280;63475;45.140;-75.616;2022-09-17T18:14:38;101258.09;;;22.52
74915;BMP280;63475;45.140;-75.616;2022-09-17T18:15:39;101254.53;;;22.46
74915;BMP280;63475;45.140;-75.616;2022-09-17T18:16:49;101237.88;;;22.33
74915;BMP280;63475;45.140;-75.616;2022-09-17T18:17:50;101249.84;;;22.32
74915;BMP280;63475;45.140;-75.616;2022-09-17T18:18:55;101236.66;;;22.19
74915;BMP280;63475;45.140;-75.616;2022-09-17T18:19:59;101234.16;;;22.07
74915;BMP280;63475;45.140;-75.616;2022-09-17T18:21:02;101237.41;;;22.20
74915;BMP280;63475;45.140;-75.616;2022-09-17T18:22:05;101240.94;;;22.26
74915;BMP280;63475;45.140;-75.616;2022-09-17T18:23:06;101236.13;;;22.30
74915;BMP280;63475;45.140;-75.616;2022-09-17T18:24:07;101230.78;;;22.21
74915;BMP280;63475;45.140;-75.616;2022-09-17T18:25:08;101234.16;;;22.30
74915;BMP280;63475;45.140;-75.616;2022-09-17T18:26:12;101210.28;;;22.23
74915;BMP280;63475;45.140;-75.616;2022-09-17T18:27:13;101230.78;;;22.21
74915;BMP280;63475;45.140;-75.616;2022-09-17T18:28:14;101222.63;;;22.15
74915;BMP280;63475;45.140;-75.616;2022-09-17T18:29:15;101228.97;;;22.27
74915;BMP280;63475;45.140;-75.616;2022-09-17T18:30:16;101230.72;;;22.54
74915;BMP280;63475;45.140;-75.616;2022-09-17T18:31:26;101225.34;;;22.83
74915;BMP280;63475;45.140;-75.616;2022-09-17T18:32:27;101220.25;;;23.00
74915;BMP280;63475;45.140;-75.616;2022-09-17T18:33:28;101221.28;;;22.88
74915;BMP280;63475;45.140;-75.616;2022-09-17T18:34:29;101223.13;;;22.96
74915;BMP280;63475;45.140;-75.616;2022-09-17T18:35:34;101216.69;;;23.08
74915;BMP280;63475;45.140;-75.616;2022-09-17T18:36:36;101213.91;;;23.03
74915;BMP280;63475;45.140;-75.616;2022-09-17T18:37:38;101203.88;;;23.18
74915;BMP280;63475;45.140;-75.616;2022-09-17T18:38:39;101210.66;;;23.13
74915;BMP280;63475;45.140;-75.616;2022-09-17T18:39:40;101210.63;;;23.28
74915;BMP280;63475;45.140;-75.616;2022-09-17T18:40:42;101209.97;;;23.33
74915;BMP280;63475;45.140;-75.616;2022-09-17T18:41:43;101208.50;;;23.32
74915;BMP280;63475;45.140;-75.616;2022-09-17T18:42:44;101211.28;;;23.23
74915;BMP280;63475;45.140;-75.616;2022-09-17T18:43:47;101207.69;;;22.97
74915;BMP280;63475;45.140;-75.616;2022-09-17T18:44:48;101210.75;;;22.90
74915;BMP280;63475;45.140;-75.616;2022-09-17T18:45:56;101203.03;;;22.83
74915;BMP280;63475;45.140;-75.616;2022-09-17T18:46:57;101203.34;;;22.85
74915;BMP280;63475;45.140;-75.616;2022-09-17T18:47:58;101190.22;;;22.77
74915;BMP280;63475;45.140;-75.616;2022-09-17T18:48:59;101189.94;;;22.90
74915;BMP280;63475;45.140;-75.616;2022-09-17T18:50:00;101196.06;;;23.20
74915;BMP280;63475;45.140;-75.616;2022-09-17T18:51:04;101183.56;;;23.37
74915;BMP280;63475;45.140;-75.616;2022-09-17T18:52:05;101185.84;;;23.59
74915;BMP280;63475;45.140;-75.616;2022-09-17T18:53:05;101185.31;;;23.40
74915;BMP280;63475;45.140;-75.616;2022-09-17T18:54:10;101181.25;;;23.50
74915;BMP280;63475;45.140;-75.616;2022-09-17T18:55:12;101177.28;;;23.46
74915;BMP280;63475;45.140;-75.616;2022-09-17T18:56:24;101183.66;;;23.28
74915;BMP280;63475;45.140;-75.616;2022-09-17T18:57:26;101179.81;;;23.35
74915;BMP280;63475;45.140;-75.616;2022-09-17T18:58:27;101178.94;;;23.58
74915;BMP280;63475;45.140;-75.616;2022-09-17T18:59:27;101180.22;;;23.62
74915;BMP280;63475;45.140;-75.616;2022-09-17T19:00:28;101173.53;;;23.58
74915;BMP280;63475;45.140;-75.616;2022-09-17T19:01:30;101181.22;;;23.65
74915;BMP280;63475;45.140;-75.616;2022-09-17T19:02:31;101181.28;;;23.70
74915;BMP280;63475;45.140;-75.616;2022-09-17T19:03:33;101174.81;;;23.62
74915;BMP280;63475;45.140;-75.616;2022-09-17T19:04:34;101166.69;;;23.42
74915;BMP280;63475;45.140;-75.616;2022-09-17T19:05:35;101176.59;;;23.16
74915;BMP280;63475;45.140;-75.616;2022-09-17T19:06:36;101165.75;;;23.10
74915;BMP280;63475;45.140;-75.616;2022-09-17T19:07:37;101153.47;;;23.09
74915;BMP280;63475;45.140;-75.616;2022-09-17T19:08:38;101162.19;;;23.19
74915;BMP280;63475;45.140;-75.616;2022-09-17T19:09:39;101158.97;;;23.00
74915;BMP280;63475;45.140;-75.616;2022-09-17T19:10:39;101160.84;;;22.80
74915;BMP280;63475;45.140;-75.616;2022-09-17T19:11:40;101156.09;;;22.74
74915;BMP280;63475;45.140;-75.616;2022-09-17T19:12:41;101151.25;;;22.78
74915;BMP280;63475;45.140;-75.616;2022-09-17T19:13:44;101152.38;;;22.87
74915;BMP280;63475;45.140;-75.616;2022-09-17T19:14:45;101148.19;;;22.86
74915;BMP280;63475;45.140;-75.616;2022-09-17T19:15:46;101145.00;;;23.02
74915;BMP280;63475;45.140;-75.616;2022-09-17T19:16:47;101141.47;;;23.10
74915;BMP280;63475;45.140;-75.616;2022-09-17T19:17:48;101136.06;;;23.25
74915;BMP280;63475;45.140;-75.616;2022-09-17T19:18:49;101139.00;;;23.27
74915;BMP280;63475;45.140;-75.616;2022-09-17T19:19:56;101138.81;;;23.31
74915;BMP280;63475;45.140;-75.616;2022-09-17T19:21:02;101146.72;;;23.34
74915;BMP280;63475;45.140;-75.616;2022-09-17T19:22:03;101133.97;;;23.35
74915;BMP280;63475;45.140;-75.616;2022-09-17T19:23:05;101141.25;;;23.49
74915;BMP280;63475;45.140;-75.616;2022-09-17T19:24:06;101140.94;;;23.61
74915;BMP280;63475;45.140;-75.616;2022-09-17T19:25:07;101143.50;;;23.50
74915;BMP280;63475;45.140;-75.616;2022-09-17T19:26:11;101145.34;;;23.24
74915;BMP280;63475;45.140;-75.616;2022-09-17T19:27:12;101127.78;;;23.14
74915;BMP280;63475;45.140;-75.616;2022-09-17T19:28:13;101127.78;;;23.14
74915;BMP280;63475;45.140;-75.616;2022-09-17T19:29:14;101118.53;;;23.00
74915;BMP280;63475;45.140;-75.616;2022-09-17T19:30:15;101126.06;;;22.82
74915;BMP280;63475;45.140;-75.616;2022-09-17T19:31:16;101134.47;;;22.84
74915;BMP280;63475;45.140;-75.616;2022-09-17T19:32:17;101116.16;;;22.88
74915;BMP280;63475;45.140;-75.616;2022-09-17T19:33:18;101118.66;;;22.76
74915;BMP280;63475;45.140;-75.616;2022-09-17T19:34:18;101116.72;;;22.62
74915;BMP280;63475;45.140;-75.616;2022-09-17T19:35:23;101122.00;;;22.57
74915;BMP280;63475;45.140;-75.616;2022-09-17T19:36:24;101115.22;;;22.61
74915;BMP280;63475;45.140;-75.616;2022-09-17T19:37:25;101121.81;;;22.60
74915;BMP280;63475;45.140;-75.616;2022-09-17T19:38:26;101114.03;;;22.62
74915;BMP280;63475;45.140;-75.616;2022-09-17T19:39:27;101115.78;;;22.65
74915;BMP280;63475;45.140;-75.616;2022-09-17T19:40:28;101113.34;;;22.67
74915;BMP280;63475;45.140;-75.616;2022-09-17T19:41:29;101113.44;;;22.73
74915;BMP280;63475;45.140;-75.616;2022-09-17T19:42:32;101117.72;;;22.80
74915;BMP280;63475;45.140;-75.616;2022-09-17T19:43:33;101109.00;;;22.85
74915;BMP280;63475;45.140;-75.616;2022-09-17T19:44:34;101104.16;;;22.89
74915;BMP280;63475;45.140;-75.616;2022-09-17T19:45:35;101108.22;;;22.99
74915;BMP280;63475;45.140;-75.616;2022-09-17T19:46:36;101100.03;;;22.93
74915;BMP280;63475;45.140;-75.616;2022-09-17T19:47:37;101111.56;;;22.79
74915;BMP280;63475;45.140;-75.616;2022-09-17T19:48:46;101107.78;;;22.71
74915;BMP280;63475;45.140;-75.616;2022-09-17T19:49:48;101112.31;;;22.80
74915;BMP280;63475;45.140;-75.616;2022-09-17T19:50:52;101094.59;;;22.88
74915;BMP280;63475;45.140;-75.616;2022-09-17T19:51:53;101099.31;;;22.93
74915;BMP280;63475;45.140;-75.616;2022-09-17T19:52:54;101102.72;;;22.93
74915;BMP280;63475;45.140;-75.616;2022-09-17T19:53:55;101085.16;;;22.83
74915;BMP280;63475;45.140;-75.616;2022-09-17T19:54:57;101093.56;;;22.85
74915;BMP280;63475;45.140;-75.616;2022-09-17T19:55:58;101102.19;;;22.89
74915;BMP280;63475;45.140;-75.616;2022-09-17T19:57:00;101091.09;;;23.02
74915;BMP280;63475;45.140;-75.616;2022-09-17T19:58:01;101098.75;;;23.23
74915;BMP280;63475;45.140;-75.616;2022-09-17T19:59:04;101088.72;;;23.24
74915;BMP280;63475;45.140;-75.616;2022-09-17T20:00:06;101087.91;;;23.38
74915;BMP280;63475;45.140;-75.616;2022-09-17T20:01:08;101086.66;;;23.34
74915;BMP280;63475;45.140;-75.616;2022-09-17T20:02:12;101086.78;;;23.45
74915;BMP280;63475;45.140;-75.616;2022-09-17T20:03:13;101083.78;;;23.43
74915;BMP280;63475;45.140;-75.616;2022-09-17T20:04:14;101070.75;;;23.41
74915;BMP280;63475;45.140;-75.616;2022-09-17T20:05:15;101063.50;;;23.47
74915;BMP280;63475;45.140;-75.616;2022-09-17T20:06:17;101069.44;;;23.51
74915;BMP280;63475;45.140;-75.616;2022-09-17T20:07:20;101072.69;;;23.55
74915;BMP280;63475;45.140;-75.616;2022-09-17T20:08:20;101069.38;;;23.66
74915;BMP280;63475;45.140;-75.616;2022-09-17T20:09:21;101071.38;;;23.71
74915;BMP280;63475;45.140;-75.616;2022-09-17T20:10:22;101058.84;;;23.48
74915;BMP280;63475;45.140;-75.616;2022-09-17T20:11:24;101066.72;;;23.31
74915;BMP280;63475;45.140;-75.616;2022-09-17T20:12:25;101060.66;;;23.36
74915;BMP280;63475;45.140;-75.616;2022-09-17T20:13:26;101059.78;;;23.45
74915;BMP280;63475;45.140;-75.616;2022-09-17T20:14:28;101053.69;;;23.50
74915;BMP280;63475;45.140;-75.616;2022-09-17T20:15:30;101053.84;;;23.61
74915;BMP280;63475;45.140;-75.616;2022-09-17T20:16:35;101055.38;;;23.67
74915;BMP280;63475;45.140;-75.616;2022-09-17T20:17:36;101048.13;;;23.79
74915;BMP280;63475;45.140;-75.616;2022-09-17T20:18:37;101057.41;;;23.73
74915;BMP280;63475;45.140;-75.616;2022-09-17T20:19:38;101052.19;;;23.89
74915;BMP280;63475;45.140;-75.616;2022-09-17T20:20:40;101052.91;;;24.15
74915;BMP280;63475;45.140;-75.616;2022-09-17T20:21:41;101049.97;;;24.19
74915;BMP280;63475;45.140;-75.616;2022-09-17T20:22:42;101039.09;;;24.39
74915;BMP280;63475;45.140;-75.616;2022-09-17T20:23:43;101036.66;;;24.41
74915;BMP280;63475;45.140;-75.616;2022-09-17T20:24:44;101032.78;;;24.53
74915;BMP280;63475;45.140;-75.616;2022-09-17T20:25:52;101032.50;;;24.83
74915;BMP280;63475;45.140;-75.616;2022-09-17T20:26:53;101033.78;;;24.93
74915;BMP280;63475;45.140;-75.616;2022-09-17T20:27:54;101030.78;;;24.85
74915;BMP280;63475;45.140;-75.616;2022-09-17T20:28:55;101024.84;;;24.81
74915;BMP280;63475;45.140;-75.616;2022-09-17T20:29:56;101033.06;;;24.98
74915;BMP280;63475;45.140;-75.616;2022-09-17T20:31:09;101025.72;;;25.04
74915;BMP280;63475;45.140;-75.616;2022-09-17T20:32:10;101028.06;;;24.85
74915;BMP280;63475;45.140;-75.616;2022-09-17T20:33:11;101016.28;;;24.83
74915;BMP280;63475;45.140;-75.616;2022-09-17T20:34:12;101016.34;;;24.99
74915;BMP280;63475;45.140;-75.616;2022-09-17T20:35:13;101017.16;;;25.22
74915;BMP280;63475;45.140;-75.616;2022-09-17T20:36:17;101032.16;;;25.18
74915;BMP280;63475;45.140;-75.616;2022-09-17T20:37:18;101024.09;;;24.81
74915;BMP280;63475;45.140;-75.616;2022-09-17T20:38:19;101027.78;;;24.78
74915;BMP280;63475;45.140;-75.616;2022-09-17T20:39:20;101034.56;;;24.56
74915;BMP280;63475;45.140;-75.616;2022-09-17T20:40:21;101024.88;;;24.44
74915;BMP280;63475;45.140;-75.616;2022-09-17T20:41:22;101028.09;;;24.48
74915;BMP280;63475;45.140;-75.616;2022-09-17T20:42:23;101030.59;;;24.52
74915;BMP280;63475;45.140;-75.616;2022-09-17T20:43:24;101020.13;;;24.65
74915;BMP280;63475;45.140;-75.616;2022-09-17T20:44:25;101018.34;;;24.56
74915;BMP280;63475;45.140;-75.616;2022-09-17T20:45:26;101022.19;;;24.87
74915;BMP280;63475;45.140;-75.616;2022-09-17T20:46:27;101028.19;;;25.13
74915;BMP280;63475;45.140;-75.616;2022-09-17T20:47:27;101024.81;;;25.29
74915;BMP280;63475;45.140;-75.616;2022-09-17T20:48:29;101009.72;;;25.06
74915;BMP280;63475;45.140;-75.616;2022-09-17T20:49:30;101021.91;;;24.79
74915;BMP280;63475;45.140;-75.616;2022-09-17T20:50:31;101019.59;;;24.61
74915;BMP280;63475;45.140;-75.616;2022-09-17T20:51:32;101023.16;;;24.41
74915;BMP280;63475;45.140;-75.616;2022-09-17T20:52:33;101013.00;;;24.68
74915;BMP280;63475;45.140;-75.616;2022-09-17T20:53:36;101018.84;;;24.60
74915;BMP280;63475;45.140;-75.616;2022-09-17T20:54:37;101013.47;;;24.24
74915;BMP280;63475;45.140;-75.616;2022-09-17T20:55:37;101018.41;;;24.31
74915;BMP280;63475;45.140;-75.616;2022-09-17T20:56:39;101012.13;;;24.45
74915;BMP280;63475;45.140;-75.616;2022-09-17T20:57:40;101018.25;;;24.45
74915;BMP280;63475;45.140;-75.616;2022-09-17T20:58:44;101003.56;;;24.21
74915;BMP280;63475;45.140;-75.616;2022-09-17T20:59:47;101007.44;;;23.83
74915;BMP280;63475;45.140;-75.616;2022-09-17T21:00:52;101002.44;;;23.70
74915;BMP280;63475;45.140;-75.616;2022-09-17T21:01:54;101006.22;;;23.84
74915;BMP280;63475;45.140;-75.616;2022-09-17T21:02:55;100999.09;;;23.81
74915;BMP280;63475;45.140;-75.616;2022-09-17T21:03:58;101000.84;;;23.58
74915;BMP280;63475;45.140;-75.616;2022-09-17T21:04:59;100999.09;;;23.55
74915;BMP280;63475;45.140;-75.616;2022-09-17T21:06:00;100997.41;;;23.37
74915;BMP280;63475;45.140;-75.616;2022-09-17T21:07:01;100990.78;;;23.38
74915;BMP280;63475;45.140;-75.616;2022-09-17T21:08:02;100993.75;;;23.40
74915;BMP280;63475;45.140;-75.616;2022-09-17T21:09:04;100993.44;;;23.33
74915;BMP280;63475;45.140;-75.616;2022-09-17T21:10:09;100987.72;;;23.25
74915;BMP280;63475;45.140;-75.616;2022-09-17T21:11:12;100983.00;;;23.20
74915;BMP280;63475;45.140;-75.616;2022-09-17T21:12:13;100989.50;;;23.13
74915;BMP280;63475;45.140;-75.616;2022-09-17T21:13:14;100982.38;;;23.10
74915;BMP280;63475;45.140;-75.616;2022-09-17T21:14:15;100982.38;;;23.10
74915;BMP280;63475;45.140;-75.616;2022-09-17T21:15:17;100980.63;;;23.07
74915;BMP280;63475;45.140;-75.616;2022-09-17T21:16:18;100983.78;;;23.06
74915;BMP280;63475;45.140;-75.616;2022-09-17T21:17:20;100973.22;;;23.02
74915;BMP280;63475;45.140;-75.616;2022-09-17T21:18:21;100979.88;;;23.07
74915;BMP280;63475;45.140;-75.616;2022-09-17T21:19:22;100969.50;;;23.00
74915;BMP280;63475;45.140;-75.616;2022-09-17T21:20:24;100974.91;;;23.00
74915;BMP280;63475;45.140;-75.616;2022-09-17T21:21:26;100972.94;;;23.00
74915;BMP280;63475;45.140;-75.616;2022-09-17T21:22:27;100979.19;;;23.12
74915;BMP280;63475;45.140;-75.616;2022-09-17T21:23:29;100980.56;;;23.22
74915;BMP280;63475;45.140;-75.616;2022-09-17T21:24:30;100965.25;;;23.34
74915;BMP280;63475;45.140;-75.616;2022-09-17T21:25:31;100970.13;;;23.30
74915;BMP280;63475;45.140;-75.616;2022-09-17T21:26:33;100974.78;;;23.29
74915;BMP280;63475;45.140;-75.616;2022-09-17T21:27:34;100970.56;;;23.28
74915;BMP280;63475;45.140;-75.616;2022-09-17T21:28:35;100979.41;;;23.29
74915;BMP280;63475;45.140;-75.616;2022-09-17T21:29:36;100968.03;;;23.19
74915;BMP280;63475;45.140;-75.616;2022-09-17T21:30:37;100971.09;;;23.12
74915;BMP280;63475;45.140;-75.616;2022-09-17T21:31:38;100971.63;;;23.16
74915;BMP280;63475;45.140;-75.616;2022-09-17T21:32:39;100967.56;;;23.20
74915;BMP280;63475;45.140;-75.616;2022-09-17T21:33:41;100962.97;;;23.06
74915;BMP280;63475;45.140;-75.616;2022-09-17T21:34:42;100958.03;;;23.05
74915;BMP280;63475;45.140;-75.616;2022-09-17T21:35:43;100954.78;;;23.01